Time;durP1;ratioP1;P1;durP2;ratioP2;P2;SDS_P1;SDS_P2;PMS_P1;PMS_P2;Temp;Humidity;BMP_temperature;BMP_pressure;BME280_temperature;BME280_humidity;BME280_pressure;Samples;Min_cycle;Max_cycle;Signal;HPM_P1;HPM_P2
2022/03/17 00:01:12;;;;;;;76.93;37.80;;;;;;;7.17;89.09;99831.94;4987419;28;20037;-52
2022/03/17 00:03:38;;;;;;;77.50;36.25;;;;;;;7.16;89.56;99830.25;4988698;28;20039;-53
2022/03/17 00:06:05;;;;;;;78.95;36.22;;;;;;;7.17;89.73;99831.94;4988974;28;20038;-53
2022/03/17 00:08:30;;;;;;;88.70;39.80;;;;;;;7.16;89.16;99830.25;5004296;28;20480;-52
2022/03/17 00:10:56;;;;;;;74.50;36.35;;;;;;;7.17;88.66;99829.25;4990648;28;20030;-51
2022/03/17 00:13:21;;;;;;;82.03;38.50;;;;;;;7.18;88.73;99823.69;4989026;28;20034;-52
2022/03/17 00:15:48;;;;;;;84.05;39.40;;;;;;;7.15;90.07;99818.78;4988119;28;20031;-51
2022/03/17 00:18:13;;;;;;;104.85;43.40;;;;;;;7.04;90.77;99822.91;4988307;28;20432;-53
2022/03/17 00:20:39;;;;;;;133.98;48.38;;;;;;;6.96;91.60;99822.25;4987501;28;20358;-53
2022/03/17 00:23:05;;;;;;;255.05;76.43;;;;;;;6.93;91.95;99825.34;4992600;28;20101;-53
2022/03/17 00:25:31;;;;;;;110.60;45.80;;;;;;;6.87;92.34;99837.66;4989587;28;20655;-51
2022/03/17 00:27:57;;;;;;;102.63;43.80;;;;;;;6.79;93.28;99844.00;4988321;28;20117;-53
2022/03/17 00:30:22;;;;;;;110.25;46.03;;;;;;;6.68;94.04;99849.91;4987435;28;20117;-53
2022/03/17 00:32:48;;;;;;;121.63;48.80;;;;;;;6.66;94.33;99849.28;4991425;28;20604;-52
2022/03/17 00:37:57;;;;;;;200.50;64.32;;;;;;;6.53;95.32;99847.41;4987834;28;20058;-51
2022/03/17 00:40:23;;;;;;;155.32;56.70;;;;;;;6.81;94.23;99849.09;4987483;28;20042;-54
2022/03/17 00:42:49;;;;;;;156.85;56.72;;;;;;;6.77;93.27;99853.22;4994444;28;20045;-53
2022/03/17 00:45:15;;;;;;;168.30;56.85;;;;;;;6.68;94.44;99861.38;4987992;28;20030;-53
2022/03/17 00:47:40;;;;;;;158.60;58.10;;;;;;;6.72;93.94;99858.31;4987412;28;20487;-53
2022/03/17 00:50:06;;;;;;;158.68;53.05;;;;;;;6.60;94.26;99864.22;4987778;28;20053;-53
2022/03/17 00:52:31;;;;;;;148.43;51.25;;;;;;;6.69;94.28;99863.03;4985631;28;20026;-54
2022/03/17 00:54:57;;;;;;;138.23;50.45;;;;;;;6.74;93.50;99874.91;4994124;28;20030;-53
2022/03/17 00:57:23;;;;;;;128.75;47.97;;;;;;;6.74;93.22;99878.41;4987032;28;20061;-53
2022/03/17 00:59:49;;;;;;;114.90;45.55;;;;;;;6.74;93.21;99877.56;4991287;28;20067;-53
2022/03/17 01:02:14;;;;;;;106.38;46.20;;;;;;;6.74;93.06;99885.56;4986677;28;20522;-53
2022/03/17 01:04:40;;;;;;;108.40;44.05;;;;;;;6.61;93.36;99881.84;4990954;28;20121;-53
2022/03/17 01:07:05;;;;;;;94.13;42.10;;;;;;;6.73;93.04;99873.28;4987249;28;20081;-53
2022/03/17 01:09:31;;;;;;;102.95;46.03;;;;;;;6.79;92.63;99877.78;4988504;28;20038;-53
2022/03/17 01:11:57;;;;;;;94.80;43.10;;;;;;;7.00;91.03;99876.81;4986816;28;20034;-51
2022/03/17 01:14:22;;;;;;;94.22;42.47;;;;;;;7.10;89.93;99878.03;4986601;28;20034;-52
2022/03/17 01:16:48;;;;;;;98.57;43.85;;;;;;;7.02;90.41;99875.59;4986069;28;20559;-53
2022/03/17 01:19:13;;;;;;;94.40;41.40;;;;;;;7.01;91.01;99879.25;4990756;28;20567;-52
2022/03/17 01:21:39;;;;;;;95.00;42.10;;;;;;;6.96;91.27;99879.03;4993225;28;20033;-53
2022/03/17 01:24:05;;;;;;;94.63;42.17;;;;;;;7.01;91.41;99892.59;4988076;28;20026;-54
2022/03/17 01:26:30;;;;;;;92.35;42.53;;;;;;;6.91;91.59;99882.34;4986638;28;20333;-51
2022/03/17 01:28:55;;;;;;;93.57;42.45;;;;;;;6.86;92.32;99883.94;4987555;28;20034;-51
2022/03/17 01:31:24;;;;;;;88.88;42.40;;;;;;;6.92;91.84;99888.50;4989226;28;20073;-54
2022/03/17 01:33:50;;;;;;;96.00;42.75;;;;;;;6.93;91.47;99886.63;4990245;28;20058;-53
2022/03/17 01:36:16;;;;;;;98.13;43.08;;;;;;;6.91;91.56;99897.50;4991571;28;20365;-54
2022/03/17 01:38:41;;;;;;;86.03;38.92;;;;;;;6.89;92.90;99883.56;4995220;28;20026;-54
2022/03/17 01:41:06;;;;;;;87.65;40.90;;;;;;;6.80;92.56;99880.25;4990280;28;20106;-52
2022/03/17 01:43:32;;;;;;;90.25;40.65;;;;;;;7.00;92.04;99885.63;4990978;28;20101;-53
2022/03/17 01:45:57;;;;;;;93.78;44.10;;;;;;;6.99;91.47;99878.66;4995016;28;20026;-53
2022/03/17 01:48:23;;;;;;;83.28;39.38;;;;;;;7.01;92.39;99881.91;4989614;28;20274;-53
2022/03/17 01:50:51;;;;;;;93.15;40.13;;;;;;;7.03;91.98;99874.56;4989489;28;20034;-51
2022/03/17 01:53:17;;;;;;;94.20;42.67;;;;;;;7.09;91.47;99873.75;4995587;28;20073;-52
2022/03/17 01:55:42;;;;;;;97.35;42.70;;;;;;;6.99;91.43;99878.66;5001466;28;20076;-50
2022/03/17 01:58:08;;;;;;;93.72;40.80;;;;;;;6.97;91.53;99872.72;4991976;28;20029;-51
2022/03/17 02:00:34;;;;;;;88.88;41.17;;;;;;;7.11;90.81;99866.38;4993981;28;20519;-53
2022/03/17 02:03:00;;;;;;;97.13;44.83;;;;;;;7.35;87.97;99859.59;4988534;28;20514;-51
2022/03/17 02:05:26;;;;;;;93.82;41.42;;;;;;;7.59;86.09;99868.00;4994740;28;20108;-52
2022/03/17 02:07:52;;;;;;;94.72;42.30;;;;;;;7.52;86.24;99865.34;4988301;28;20030;-53
2022/03/17 02:10:18;;;;;;;95.57;40.67;;;;;;;7.22;89.40;99861.47;4990258;28;21392;-53
2022/03/17 02:15:28;;;;;;;94.80;44.55;;;;;;;7.51;86.85;99855.69;4993244;28;20044;-52
2022/03/17 02:17:53;;;;;;;102.60;46.88;;;;;;;7.72;84.79;99843.97;4989984;28;20019;-52
2022/03/17 02:20:18;;;;;;;94.78;45.05;;;;;;;7.84;83.66;99841.47;4990313;28;20109;-53
2022/03/17 02:22:48;;;;;;;89.32;42.22;;;;;;;7.90;82.93;99848.63;4990104;28;20440;-51
2022/03/17 02:27:59;;;;;;;88.30;41.63;;;;;;;7.98;82.42;99850.25;5000337;28;20343;-54
2022/03/17 02:30:25;;;;;;;93.38;42.92;;;;;;;7.88;82.39;99850.69;4989233;28;20081;-52
2022/03/17 02:32:50;;;;;;;91.47;42.28;;;;;;;7.69;83.45;99849.72;4989216;28;20038;-53
2022/03/17 02:35:20;;;;;;;94.97;43.35;;;;;;;7.79;83.04;99851.97;4994188;28;20022;-53
2022/03/17 02:37:46;;;;;;;96.13;43.45;;;;;;;7.74;82.96;99854.44;4989777;28;20385;-53
2022/03/17 02:40:11;;;;;;;96.95;44.40;;;;;;;7.64;84.16;99851.34;4989722;28;20099;-54
2022/03/17 02:42:37;;;;;;;93.63;41.85;;;;;;;7.23;88.22;99857.75;4987464;28;20097;-53
2022/03/17 02:45:04;;;;;;;96.15;42.35;;;;;;;7.01;90.11;99854.47;4988142;28;20424;-51
2022/03/17 02:47:29;;;;;;;94.97;41.95;;;;;;;6.68;92.50;99858.72;4989378;28;20108;-51
2022/03/17 02:49:55;;;;;;;95.57;44.55;;;;;;;6.52;93.15;99860.94;4989923;28;20453;-52
2022/03/17 02:52:24;;;;;;;96.50;42.58;;;;;;;6.43;94.37;99866.41;4987593;28;20033;-53
2022/03/17 02:54:50;;;;;;;98.38;43.72;;;;;;;6.62;92.26;99862.19;4986064;28;20038;-50
2022/03/17 02:57:16;;;;;;;96.38;41.88;;;;;;;7.07;88.40;99867.78;4989188;28;20096;-54
2022/03/17 02:59:42;;;;;;;85.93;41.20;;;;;;;7.25;86.99;99869.03;4992102;28;20555;-53
2022/03/17 03:02:07;;;;;;;99.70;41.78;;;;;;;7.13;87.58;99868.81;4987976;28;20097;-53
2022/03/17 03:04:36;;;;;;;91.75;41.55;;;;;;;7.16;87.53;99867.59;4989064;28;20274;-53
2022/03/17 03:07:06;;;;;;;97.10;43.33;;;;;;;7.29;87.23;99872.94;4988471;28;20042;-52
2022/03/17 03:09:31;;;;;;;88.60;42.38;;;;;;;7.41;86.70;99873.94;4995647;28;20480;-53
2022/03/17 03:11:57;;;;;;;93.40;40.92;;;;;;;7.28;86.98;99892.63;4988759;28;20030;-54
2022/03/17 03:14:22;;;;;;;102.32;45.85;;;;;;;7.08;89.15;99893.41;4989635;28;20665;-53
2022/03/17 03:16:49;;;;;;;99.82;43.33;;;;;;;6.92;91.03;99891.16;4988045;28;20459;-54
2022/03/17 03:19:14;;;;;;;91.88;42.03;;;;;;;6.73;92.63;99889.25;4988629;28;20062;-53
2022/03/17 03:21:40;;;;;;;97.68;43.15;;;;;;;6.58;93.94;99884.91;4992595;28;20113;-53
2022/03/17 03:24:05;;;;;;;122.13;47.63;;;;;;;6.57;95.46;99880.63;4993788;28;20092;-53
2022/03/17 03:26:31;;;;;;;104.00;43.58;;;;;;;6.80;94.99;99884.78;4991587;28;20163;-52
2022/03/17 03:28:56;;;;;;;102.32;45.08;;;;;;;7.05;91.17;99879.69;4989581;28;20042;-52
2022/03/17 03:31:22;;;;;;;98.78;43.30;;;;;;;7.16;89.24;99883.59;4988209;28;20446;-52
2022/03/17 03:33:47;;;;;;;97.55;43.35;;;;;;;7.25;88.69;99893.03;4989121;28;20038;-53
2022/03/17 03:38:57;;;;;;;103.40;44.80;;;;;;;7.30;87.98;99890.56;4988862;28;20084;-54
2022/03/17 03:41:22;;;;;;;105.57;44.40;;;;;;;7.24;89.07;99899.38;4986313;28;20034;-52
2022/03/17 03:43:48;;;;;;;107.72;45.88;;;;;;;7.02;89.74;99902.25;4988626;28;20136;-52
2022/03/17 03:46:14;;;;;;;119.53;46.85;;;;;;;6.71;91.98;99913.44;4991316;28;20029;-52
2022/03/17 03:48:40;;;;;;;134.32;47.83;;;;;;;6.46;94.62;99913.13;4989277;28;20039;-51
2022/03/17 03:51:06;;;;;;;133.32;48.10;;;;;;;6.15;97.01;99914.44;4988122;28;20038;-52
2022/03/17 03:54:17;;;;;;;127.78;48.75;;;;;;;6.13;97.00;99921.78;4989451;28;20031;-55
2022/03/17 03:56:17;;;;;;;121.85;46.67;;;;;;;6.30;96.44;99924.13;4981476;28;20054;-52
2022/03/17 03:58:42;;;;;;;129.25;48.35;;;;;;;6.37;95.79;99930.31;4995010;28;20022;-52
2022/03/17 04:01:08;;;;;;;108.60;47.65;;;;;;;6.40;95.14;99929.91;5005918;28;20040;-53
2022/03/17 04:03:33;;;;;;;131.30;49.92;;;;;;;6.31;95.66;99928.44;4988592;28;20085;-54
2022/03/17 04:05:59;;;;;;;114.13;45.72;;;;;;;6.42;96.45;99930.53;4988692;28;20496;-54
2022/03/17 04:08:24;;;;;;;108.88;44.85;;;;;;;6.55;96.12;99935.09;4993634;28;20034;-54
2022/03/17 04:10:50;;;;;;;121.95;49.67;;;;;;;6.56;93.67;99928.75;4988048;28;20027;-54
2022/03/17 04:13:15;;;;;;;114.65;47.85;;;;;;;6.57;94.16;99941.88;4988083;28;20439;-55
2022/03/17 04:15:41;;;;;;;113.95;46.20;;;;;;;6.53;93.65;99932.63;4998886;28;20054;-55
2022/03/17 04:18:06;;;;;;;103.70;45.60;;;;;;;6.52;94.07;99946.16;4987711;28;20570;-53
2022/03/17 04:20:32;;;;;;;104.60;47.53;;;;;;;6.53;94.01;99943.28;4983889;28;20041;-55
2022/03/17 04:22:58;;;;;;;112.93;44.95;;;;;;;6.58;94.37;99956.81;4990938;28;20078;-55
2022/03/17 04:25:23;;;;;;;121.85;47.30;;;;;;;6.61;93.50;99964.41;4997091;28;20034;-51
2022/03/17 04:27:49;;;;;;;107.40;46.55;;;;;;;6.63;93.08;99966.88;4986349;28;20045;-53
2022/03/17 04:30:14;;;;;;;114.85;45.58;;;;;;;6.70;91.92;99971.22;4990554;28;20481;-52
2022/03/17 04:32:40;;;;;;;159.73;48.65;;;;;;;6.60;92.82;99983.28;4986334;28;20038;-52
2022/03/17 04:35:07;;;;;;;137.15;48.55;;;;;;;6.52;93.73;99981.59;4986375;28;20038;-52
2022/03/17 04:37:32;;;;;;;119.13;46.90;;;;;;;6.52;94.36;99973.59;4986515;28;20026;-55
2022/03/17 04:39:58;;;;;;;128.68;50.75;;;;;;;6.37;95.37;99981.72;4987258;28;20057;-55
2022/03/17 04:42:23;;;;;;;118.15;46.72;;;;;;;6.39;95.28;99984.16;4987743;28;20480;-52
2022/03/17 04:44:48;;;;;;;120.78;45.50;;;;;;;6.37;95.14;99987.06;4988820;28;20046;-52
2022/03/17 04:47:15;;;;;;;114.05;46.95;;;;;;;6.39;94.99;99981.50;4986813;28;20084;-53
2022/03/17 04:49:41;;;;;;;110.15;46.03;;;;;;;6.59;93.15;99985.13;4987755;28;20120;-53
2022/03/17 04:53:27;;;;;;;106.80;45.85;;;;;;;6.62;91.92;99992.72;4986338;28;20544;-53
2022/03/17 04:54:52;;;;;;;98.97;45.22;;;;;;;6.62;92.56;100000.69;4987687;28;20045;-53
2022/03/17 04:57:17;;;;;;;95.70;42.90;;;;;;;6.61;93.48;99998.22;4986843;28;20022;-53
2022/03/17 04:59:43;;;;;;;105.13;44.10;;;;;;;6.66;92.30;99999.28;4987661;28;20030;-52
2022/03/17 05:02:08;;;;;;;104.03;46.75;;;;;;;6.76;90.63;99998.09;4988013;28;20456;-53
2022/03/17 05:04:34;;;;;;;107.68;46.08;;;;;;;6.86;90.41;100001.19;4993112;28;20031;-54
2022/03/17 05:06:59;;;;;;;100.20;43.90;;;;;;;6.88;89.47;100010.63;4994640;28;20038;-51
2022/03/17 05:09:25;;;;;;;99.70;44.92;;;;;;;6.89;89.27;100006.16;4996519;28;20484;-53
2022/03/17 05:11:51;;;;;;;102.47;46.92;;;;;;;6.87;89.21;100008.19;4992908;28;20038;-52
2022/03/17 05:14:16;;;;;;;102.88;44.92;;;;;;;6.86;89.51;100017.19;4991769;28;20037;-53
2022/03/17 05:16:41;;;;;;;102.00;44.80;;;;;;;6.86;89.48;100026.03;4994455;28;20465;-51
2022/03/17 05:19:07;;;;;;;100.18;45.03;;;;;;;6.81;90.04;100030.28;4991852;28;20038;-52
2022/03/17 05:21:34;;;;;;;111.75;45.10;;;;;;;6.43;92.96;100030.69;4990864;28;20042;-50
2022/03/17 05:23:59;;;;;;;115.22;44.83;;;;;;;6.24;95.05;100041.03;4992010;28;20508;-53
2022/03/17 05:26:24;;;;;;;114.63;45.15;;;;;;;5.96;96.72;100040.19;4999973;28;20038;-53
2022/03/17 05:28:50;;;;;;;115.05;45.42;;;;;;;5.84;98.76;100042.50;4991347;28;20049;-54
2022/03/17 05:31:15;;;;;;;109.43;44.38;;;;;;;6.14;96.35;100035.25;4996877;28;20084;-53
2022/03/17 05:33:41;;;;;;;104.70;47.05;;;;;;;6.63;92.54;100050.28;4991215;28;20539;-50
2022/03/17 05:36:06;;;;;;;105.68;45.70;;;;;;;6.63;91.77;100054.78;4990619;28;20064;-53
2022/03/17 05:38:32;;;;;;;115.22;50.95;;;;;;;6.67;91.29;100048.06;4993364;28;20031;-53
2022/03/17 05:40:57;;;;;;;108.95;48.33;;;;;;;6.66;91.37;100047.25;5001852;28;20445;-51
2022/03/17 05:43:23;;;;;;;109.53;46.53;;;;;;;6.75;90.36;100047.88;4989760;28;20039;-50
2022/03/17 05:45:49;;;;;;;110.30;47.97;;;;;;;6.89;89.64;100059.44;4993030;28;20025;-53
2022/03/17 05:48:14;;;;;;;106.07;48.00;;;;;;;6.95;89.42;100055.16;4998302;28;20104;-53
2022/03/17 05:50:41;;;;;;;106.13;46.15;;;;;;;6.96;89.14;100060.28;4988689;28;20369;-52
2022/03/17 05:53:07;;;;;;;108.78;46.65;;;;;;;7.02;89.11;100069.34;4996003;28;20052;-54
2022/03/17 05:55:32;;;;;;;118.25;49.42;;;;;;;6.93;89.99;100082.00;4998611;28;20480;-53
2022/03/17 05:57:58;;;;;;;124.82;53.72;;;;;;;6.72;92.48;100080.25;4995659;28;20120;-53
2022/03/17 06:00:25;;;;;;;132.27;53.08;;;;;;;6.61;93.87;100089.59;4990465;28;20034;-53
2022/03/17 06:02:51;;;;;;;135.75;51.10;;;;;;;6.63;95.02;100087.56;4994847;28;20676;-53
2022/03/17 06:05:16;;;;;;;129.18;52.03;;;;;;;6.60;94.62;100090.63;4995133;28;20110;-54
2022/03/17 06:07:43;;;;;;;139.27;54.75;;;;;;;6.57;94.55;100099.03;5000663;28;20133;-55
2022/03/17 06:10:10;;;;;;;131.60;51.63;;;;;;;6.50;94.76;100108.00;4992201;28;20388;-53
2022/03/17 06:12:35;;;;;;;110.88;48.45;;;;;;;6.57;94.09;100100.88;4995199;28;20369;-55
2022/03/17 06:15:01;;;;;;;106.47;47.15;;;;;;;6.74;93.01;100101.38;4991067;28;20057;-54
2022/03/17 06:17:37;;;;;;;104.30;47.60;;;;;;;6.74;93.09;100101.38;4992801;28;20044;-55
2022/03/17 06:20:02;;;;;;;124.32;52.10;;;;;;;6.70;93.51;100115.09;4988969;28;20073;-54
2022/03/17 06:22:28;;;;;;;118.20;49.38;;;;;;;6.63;94.53;100116.88;4996585;28;20500;-55
2022/03/17 06:24:53;;;;;;;128.43;52.05;;;;;;;6.51;94.91;100110.44;4991872;28;20465;-53
2022/03/17 06:27:18;;;;;;;121.85;50.53;;;;;;;6.45;95.87;100117.38;4994692;28;20037;-53
2022/03/17 06:29:44;;;;;;;111.75;48.67;;;;;;;6.64;95.75;100131.00;4993700;28;20026;-53
2022/03/17 06:32:09;;;;;;;118.60;49.30;;;;;;;6.64;94.38;100136.34;4998449;28;20368;-51
2022/03/17 06:34:35;;;;;;;118.50;49.92;;;;;;;6.57;95.03;100136.31;4989247;28;20041;-53
2022/03/17 06:37:00;;;;;;;121.13;50.40;;;;;;;6.63;94.89;100134.72;4987690;28;20037;-53
2022/03/17 06:39:25;;;;;;;115.85;48.03;;;;;;;6.76;96.13;100144.63;4989803;28;20026;-56
2022/03/17 06:41:51;;;;;;;125.93;50.38;;;;;;;6.85;94.39;100140.78;4988728;28;20519;-56
2022/03/17 06:44:16;;;;;;;115.20;49.58;;;;;;;7.01;93.17;100143.13;4990803;28;20038;-53
2022/03/17 06:46:42;;;;;;;123.97;52.10;;;;;;;6.87;93.69;100144.91;5003810;28;20029;-51
2022/03/17 06:49:07;;;;;;;116.78;49.28;;;;;;;6.87;94.83;100149.44;5001513;28;20031;-55
2022/03/17 06:51:32;;;;;;;127.40;53.50;;;;;;;6.87;95.39;100149.44;4989584;28;20034;-53
2022/03/17 06:53:58;;;;;;;126.47;52.05;;;;;;;6.79;95.59;100160.22;4989837;28;20491;-52
2022/03/17 06:56:23;;;;;;;123.78;51.22;;;;;;;6.85;96.00;100170.09;4987268;28;20499;-54
2022/03/17 06:58:49;;;;;;;123.22;51.97;;;;;;;6.82;96.24;100167.84;4995102;28;20034;-55
2022/03/17 07:01:14;;;;;;;124.28;51.13;;;;;;;6.85;95.85;100172.78;4992397;28;20037;-54
2022/03/17 07:03:39;;;;;;;122.07;51.40;;;;;;;6.87;95.45;100176.06;4989472;28;20038;-53
2022/03/17 07:06:05;;;;;;;124.40;50.67;;;;;;;6.85;95.69;100170.09;4988435;28;20038;-53
2022/03/17 07:08:30;;;;;;;122.10;51.05;;;;;;;6.80;96.55;100183.19;4989782;28;20030;-57
2022/03/17 07:10:56;;;;;;;121.05;50.25;;;;;;;6.80;97.31;100172.53;4994572;28;20034;-56
2022/03/17 07:13:22;;;;;;;116.57;48.33;;;;;;;6.73;97.88;100182.31;4997828;28;20129;-56
2022/03/17 07:15:48;;;;;;;113.20;46.92;;;;;;;6.78;98.14;100190.56;5003532;28;20030;-56
2022/03/17 07:18:13;;;;;;;103.18;45.33;;;;;;;6.73;97.49;100193.78;4996709;28;20507;-54
2022/03/17 07:20:39;;;;;;;106.32;45.47;;;;;;;6.69;97.77;100201.38;4992049;28;20038;-53
2022/03/17 07:23:04;;;;;;;268.95;90.57;;;;;;;6.77;98.45;100204.91;4996155;28;20038;-52
2022/03/17 07:25:30;;;;;;;141.57;56.28;;;;;;;6.78;98.04;100211.88;4988915;28;20072;-55
2022/03/17 07:27:55;;;;;;;116.00;49.70;;;;;;;6.83;98.26;100214.78;4989259;28;20473;-52
2022/03/17 07:30:22;;;;;;;113.90;48.30;;;;;;;6.84;97.95;100232.41;4999513;28;20089;-55
2022/03/17 07:32:59;;;;;;;114.93;46.92;;;;;;;6.84;97.88;100233.25;5003568;28;20503;-55
2022/03/17 07:35:25;;;;;;;109.63;47.70;;;;;;;6.92;99.16;100250.94;4989101;28;20038;-55
2022/03/17 07:37:51;;;;;;;120.80;47.75;;;;;;;6.78;98.91;100260.66;4989179;28;20037;-54
2022/03/17 07:40:16;;;;;;;125.45;49.10;;;;;;;6.73;99.44;100275.56;4987501;28;20026;-55
2022/03/17 07:42:42;;;;;;;116.07;48.38;;;;;;;6.58;99.57;100270.31;4993437;28;20041;-55
2022/03/17 07:45:08;;;;;;;135.30;50.58;;;;;;;6.60;99.52;100271.78;4988526;28;20030;-54
2022/03/17 07:47:33;;;;;;;126.57;51.08;;;;;;;6.67;98.68;100280.66;4988444;28;20029;-56
2022/03/17 07:50:01;;;;;;;120.65;47.80;;;;;;;6.82;98.13;100279.75;4995922;28;20369;-55
2022/03/17 07:52:26;;;;;;;124.35;49.92;;;;;;;6.92;99.50;100288.25;4988005;28;20468;-55
2022/03/17 07:54:51;;;;;;;119.43;47.15;;;;;;;7.10;99.84;100283.25;4988784;28;20048;-55
2022/03/17 07:57:17;;;;;;;107.50;42.08;;;;;;;7.19;100.00;100283.09;4994551;28;20064;-57
2022/03/17 07:59:42;;;;;;;96.95;39.17;;;;;;;7.18;100.00;100290.28;4996579;28;20025;-55
2022/03/17 08:02:08;;;;;;;107.93;40.88;;;;;;;7.23;100.00;100297.69;4992202;28;20093;-54
2022/03/17 08:04:34;;;;;;;94.60;37.08;;;;;;;7.35;100.00;100304.16;4988810;28;20365;-55
2022/03/17 08:07:03;;;;;;;86.30;32.85;;;;;;;7.30;100.00;100306.56;4987786;28;20102;-54
2022/03/17 08:09:29;;;;;;;78.13;32.90;;;;;;;7.35;100.00;100307.63;4986503;28;20085;-55
2022/03/17 08:11:54;;;;;;;66.68;25.13;;;;;;;7.43;100.00;100317.31;4991475;28;20026;-55
2022/03/17 08:14:20;;;;;;;66.75;25.90;;;;;;;7.40;100.00;100307.06;4990585;28;20038;-54
2022/03/17 08:16:45;;;;;;;64.30;27.98;;;;;;;7.50;100.00;100312.84;4988595;28;20032;-55
2022/03/17 08:19:11;;;;;;;64.70;28.10;;;;;;;7.43;100.00;100317.31;4988520;28;20042;-55
2022/03/17 08:21:37;;;;;;;67.30;27.95;;;;;;;7.48;100.00;100319.41;4986479;28;20465;-54
2022/03/17 08:24:03;;;;;;;62.03;28.08;;;;;;;7.49;100.00;100329.06;4993549;28;20360;-52
2022/03/17 08:26:29;;;;;;;59.55;23.73;;;;;;;7.46;100.00;100337.44;4987011;28;20037;-56
2022/03/17 08:28:54;;;;;;;55.08;22.55;;;;;;;7.40;100.00;100339.06;4988734;28;20041;-55
2022/03/17 08:31:19;;;;;;;63.83;27.60;;;;;;;7.34;100.00;100350.53;4987694;28;20104;-56
2022/03/17 08:33:45;;;;;;;65.53;28.02;;;;;;;7.28;100.00;100364.59;4994752;28;20038;-56
2022/03/17 08:36:10;;;;;;;75.65;30.00;;;;;;;7.22;100.00;100374.22;4987154;28;20105;-55
2022/03/17 08:38:36;;;;;;;76.25;31.20;;;;;;;7.18;100.00;100382.78;4988287;28;20035;-56
2022/03/17 08:41:01;;;;;;;88.80;32.83;;;;;;;7.07;100.00;100382.28;4986287;28;20552;-55
2022/03/17 08:43:27;;;;;;;89.00;33.40;;;;;;;7.06;100.00;100391.31;4990998;28;20126;-55
2022/03/17 08:51:26;;;;;;;73.28;28.65;;;;;;;6.91;100.00;100411.84;4991839;28;20040;-55
2022/03/17 08:53:52;;;;;;;79.50;30.23;;;;;;;6.89;100.00;100417.38;4990610;28;20030;-55
2022/03/17 08:56:17;;;;;;;73.05;27.90;;;;;;;6.85;100.00;100423.28;4991274;28;20085;-59
2022/03/17 08:58:43;;;;;;;74.55;30.83;;;;;;;6.88;98.91;100434.38;5002182;28;20068;-55
2022/03/17 09:01:08;;;;;;;70.13;27.98;;;;;;;6.84;99.00;100440.25;4997282;28;20044;-53
2022/03/17 09:03:34;;;;;;;78.35;31.75;;;;;;;6.81;99.56;100441.47;4997404;28;20037;-55
2022/03/17 09:05:59;;;;;;;78.05;28.65;;;;;;;6.87;98.84;100447.91;4993726;28;20038;-54
2022/03/17 09:08:28;;;;;;;74.65;29.30;;;;;;;6.92;98.58;100437.50;4990672;28;20073;-55
2022/03/17 09:10:57;;;;;;;84.18;32.17;;;;;;;6.86;99.08;100438.25;5001698;28;20038;-55
2022/03/17 09:13:26;;;;;;;68.80;27.48;;;;;;;6.82;99.15;100434.31;4995556;28;20027;-55
2022/03/17 09:15:52;;;;;;;65.05;26.85;;;;;;;6.75;99.56;100446.75;4986244;28;20031;-55
2022/03/17 09:18:17;;;;;;;65.03;26.13;;;;;;;6.68;100.00;100457.31;4991364;28;20072;-55
2022/03/17 09:20:42;;;;;;;60.30;26.38;;;;;;;6.60;99.94;100460.91;4991293;28;20042;-56
2022/03/17 09:23:08;;;;;;;40.30;19.60;;;;;;;6.60;98.73;100463.56;4991785;28;20038;-55
2022/03/17 09:25:34;;;;;;;60.88;23.55;;;;;;;6.49;99.02;100472.06;4990927;28;20520;-56
2022/03/17 09:28:00;;;;;;;51.80;21.98;;;;;;;6.48;97.96;100473.88;4991955;28;20038;-56
2022/03/17 09:30:26;;;;;;;54.35;23.17;;;;;;;6.62;98.71;100482.88;4994484;28;20598;-54
2022/03/17 09:32:59;;;;;;;52.97;22.88;;;;;;;6.55;98.85;100484.63;4991828;28;20030;-53
2022/03/17 09:35:24;;;;;;;45.75;19.30;;;;;;;6.52;97.58;100490.31;4989100;28;20026;-55
2022/03/17 09:37:50;;;;;;;40.20;17.88;;;;;;;6.51;95.57;100499.31;4990048;28;20416;-54
2022/03/17 09:40:16;;;;;;;36.30;15.73;;;;;;;6.53;95.60;100509.78;4990816;28;20046;-53
2022/03/17 09:42:41;;;;;;;30.55;14.20;;;;;;;6.45;95.22;100498.22;4991118;28;20034;-51
2022/03/17 09:45:07;;;;;;;30.70;13.20;;;;;;;6.46;94.63;100509.69;4991469;28;20373;-51
2022/03/17 09:47:35;;;;;;;27.98;11.45;;;;;;;6.61;93.52;100510.50;4995647;28;20053;-56
2022/03/17 09:50:00;;;;;;;31.63;14.15;;;;;;;6.57;93.50;100514.56;4990702;28;20039;-54
2022/03/17 09:52:27;;;;;;;27.80;12.55;;;;;;;6.56;93.56;100514.75;4997014;28;20030;-54
2022/03/17 09:54:52;;;;;;;26.52;11.82;;;;;;;6.72;92.91;100516.41;4989920;28;20050;-55
2022/03/17 09:57:18;;;;;;;32.03;12.02;;;;;;;6.85;92.00;100529.88;4990291;28;20037;-55
2022/03/17 09:59:48;;;;;;;30.65;13.07;;;;;;;6.91;93.09;100534.44;4995842;28;20085;-54
2022/03/17 10:02:18;;;;;;;29.92;12.80;;;;;;;7.05;92.18;100533.59;5011223;28;20597;-53
2022/03/17 10:04:44;;;;;;;27.60;10.65;;;;;;;7.11;92.13;100532.88;4996254;28;20484;-54
2022/03/17 10:07:12;;;;;;;30.05;12.52;;;;;;;7.21;91.13;100540.53;4989715;28;20049;-53
2022/03/17 10:09:38;;;;;;;22.85;11.30;;;;;;;7.30;91.12;100543.94;4990874;28;20030;-54
2022/03/17 10:12:11;;;;;;;21.10;9.98;;;;;;;7.23;90.08;100545.69;4994822;28;20026;-54
2022/03/17 10:15:03;;;;;;;22.45;10.65;;;;;;;7.29;90.02;100544.97;4990760;28;20136;-53
2022/03/17 10:17:29;;;;;;;22.98;9.88;;;;;;;7.47;88.06;100542.66;4989892;28;20043;-55
2022/03/17 10:20:13;;;;;;;19.15;10.68;;;;;;;7.63;87.64;100546.91;4992912;28;20093;-55
2022/03/17 10:22:50;;;;;;;21.98;10.57;;;;;;;7.71;87.97;100552.16;4989678;28;20034;-54
2022/03/17 10:25:21;;;;;;;30.55;10.40;;;;;;;7.57;87.86;100553.03;5000005;28;20030;-55
2022/03/17 10:27:46;;;;;;;15.65;7.72;;;;;;;7.44;87.28;100556.41;4996534;28;20030;-55
2022/03/17 10:30:23;;;;;;;22.92;9.90;;;;;;;7.49;87.79;100558.50;4998425;28;20052;-54
2022/03/17 10:33:02;;;;;;;22.38;9.38;;;;;;;7.44;87.31;100569.75;4990174;28;20041;-55
2022/03/17 10:35:34;;;;;;;20.23;9.05;;;;;;;7.36;87.31;100572.50;4988663;28;20117;-55
2022/03/17 10:38:13;;;;;;;21.55;9.52;;;;;;;7.45;88.23;100568.72;5003029;28;20042;-55
2022/03/17 10:40:40;;;;;;;19.38;8.55;;;;;;;7.54;87.66;100580.91;4992802;28;20033;-54
2022/03/17 10:43:15;;;;;;;21.70;9.77;;;;;;;7.45;87.16;100579.38;4989546;28;20038;-55
2022/03/17 10:45:41;;;;;;;21.65;8.40;;;;;;;7.42;86.66;100581.59;4989759;28;20152;-54
2022/03/17 10:48:06;;;;;;;17.98;8.50;;;;;;;7.34;87.45;100590.56;4988155;28;20030;-56
2022/03/17 10:50:38;;;;;;;17.17;7.97;;;;;;;7.47;87.23;100601.38;4984400;28;20668;-54
2022/03/17 10:53:03;;;;;;;13.73;6.78;;;;;;;7.26;86.19;100606.66;4996997;28;20041;-55
2022/03/17 10:55:30;;;;;;;12.98;6.35;;;;;;;7.31;85.00;100601.56;4995857;28;20396;-53
2022/03/17 10:57:58;;;;;;;15.27;6.15;;;;;;;7.44;85.09;100607.09;4989853;28;20030;-54
2022/03/17 11:00:27;;;;;;;12.73;6.82;;;;;;;7.44;84.31;100612.41;4996898;28;20530;-55
2022/03/17 11:02:57;;;;;;;13.60;6.68;;;;;;;7.57;84.54;100617.88;4991243;28;20042;-54
2022/03/17 11:05:23;;;;;;;18.75;8.80;;;;;;;7.54;84.84;100634.28;4988644;28;20159;-53
2022/03/17 11:07:48;;;;;;;9.13;5.70;;;;;;;7.58;83.70;100621.38;4988456;28;20045;-57
2022/03/17 11:10:20;;;;;;;10.68;5.85;;;;;;;7.62;83.16;100619.19;4989870;28;20026;-56
2022/03/17 11:12:46;;;;;;;11.35;5.85;;;;;;;7.56;83.09;100632.25;4991564;28;20117;-56
2022/03/17 11:15:12;;;;;;;10.75;5.43;;;;;;;7.61;82.77;100629.00;4989603;28;20041;-55
2022/03/17 11:17:39;;;;;;;10.25;4.97;;;;;;;7.61;81.89;100625.50;4987309;28;20480;-53
2022/03/17 11:20:06;;;;;;;9.05;5.30;;;;;;;7.72;82.07;100635.72;4987989;28;20109;-54
2022/03/17 11:22:33;;;;;;;13.98;6.15;;;;;;;7.82;83.15;100630.88;4989521;28;20384;-53
2022/03/17 11:25:25;;;;;;;10.27;6.13;;;;;;;7.73;82.90;100624.00;4987937;28;20038;-56
2022/03/17 11:27:58;;;;;;;11.05;6.40;;;;;;;7.60;83.22;100631.88;4989539;28;20029;-56
2022/03/17 11:30:47;;;;;;;14.18;6.65;;;;;;;7.53;83.71;100626.47;4987956;28;20109;-54